メインページ
METAR-TAF:

METAR-TAF

空港 :

小松島, 日本

緯度: 34-00N, 経度: 134-38E, 海抜: 3m

現時点の気象観測

当レポートは25分前の08:36(UTC)に作成
北/北東の風 7kt、から東/北東の間で変化する
気温 17°C
湿度 94%
気圧 1005 hPa
視程: 4900m
高度400ftの雲はほとんどない
高度800ftの千切れ雲あり
高度1200ftの千切れ雲あり
弱いにわか雨, 靄

METAR: RJOP 240836Z 03007KT 360V060 4900 -SHRA BR FEW004 BKN008 BKN012 17/16 Q1005 RMK 2ST004 5ST008 7CU012 A2969

時間: 18:01 (09:01 UTC)


TAF: 見つかりません

4,000以上の空港の気象観測と天気予報(METAR報とTAF報)

利用可能な観測所は地図上に黄色い丸と赤い丸で示す。

丸の上にカーソルを重ねると観測所名を参照できる。

次にクリックすると気象観測と天気予報を参照できる。

マップの切り替え:黒色「×」印の緑ボタンをクリックして拡大、「-」印の緑ボタンをクリックして縮小、緑色の三角印をクリックして隣りの地図に切り替え


METAR-TAF: